Emmonak Airport Emmonak US
ICAO: PAEM
IATA:
Category: Medium
Scheduled Services:

Elevation: 13 ft
TransAlt. 18000 ft.

Airport Communications:
AWOS 3:135.35
ANCHORAGE CNTR:132.5
CTAF:122.9
KENAI RDO:122.55
TWEB:177.8

PAEM Zoom In..

If you have problems with the map follow the link
https://www.worldairports.se/pages/airport.php?
ICAO=PAEM

Runways:

(A) RW 16 length 4601 ft width 100 ft
---- / hdg 163

(B) RW 34 length 4601 ft width 100 ft
---- / hdg 343

Location; PAEM
Day. 29 / Time. 20.56 Zulu
* Altimeter: 29.52
* Temperature: -24° c. 11.2°f.
* Wind from: 350° Speed 10 kn.
Dewpoint: -27° c.
Visibility: 10 Statute Miles.
Clouds: Clear (automated report).

PAEM 292056Z AUTO 35010KT 10SM CLR M24/M27 A2952 RMK AO2 SLP994 T12391267 56006 FZRANO


Wind From 350°
Speed 10 kn.

 
 
jpsmedia worldairports.se 2020   terms of use